Time;durP1;ratioP1;P1;durP2;ratioP2;P2;SDS_P1;SDS_P2;PMS_P1;PMS_P2;Temp;Humidity;BMP_temperature;BMP_pressure;BME280_temperature;BME280_humidity;BME280_pressure;Samples;Min_cycle;Max_cycle;Signal;HPM_P1;HPM_P2
2023/07/29 00:01:51;;;;;;;10.85;8.13;;;;;;;;;;5024391;28;20073;-74
2023/07/29 00:04:17;;;;;;;11.13;7.85;;;;;;;;;;5015137;28;20050;-74
2023/07/29 00:06:43;;;;;;;11.90;8.35;;;;;;;;;;5016413;28;20043;-74
2023/07/29 00:09:09;;;;;;;12.73;8.57;;;;;;;;;;5026344;28;20037;-74
2023/07/29 00:11:35;;;;;;;10.93;8.32;;;;;;;;;;5015089;28;20051;-72
2023/07/29 00:14:02;;;;;;;10.07;7.85;;;;;;;;;;5011921;28;20483;-72
2023/07/29 00:16:28;;;;;;;11.57;8.70;;;;;;;;;;5015463;28;20041;-72
2023/07/29 00:18:54;;;;;;;14.77;8.57;;;;;;;;;;5017085;28;20072;-72
2023/07/29 00:21:20;;;;;;;12.60;8.95;;;;;;;;;;5014596;28;20064;-72
2023/07/29 00:23:46;;;;;;;15.00;9.00;;;;;;;;;;5014814;28;20041;-72
2023/07/29 00:26:12;;;;;;;13.98;8.68;;;;;;;;;;5015024;28;20045;-72
2023/07/29 00:28:38;;;;;;;11.95;8.40;;;;;;;;;;5016041;28;20041;-72
2023/07/29 00:31:04;;;;;;;12.38;8.07;;;;;;;;;;5014876;28;20132;-74
2023/07/29 00:33:30;;;;;;;11.20;8.30;;;;;;;;;;5031739;28;20045;-74
2023/07/29 00:35:56;;;;;;;12.75;8.20;;;;;;;;;;5014978;28;20049;-74
2023/07/29 00:38:22;;;;;;;13.10;9.07;;;;;;;;;;5015435;28;21336;-74
2023/07/29 00:40:48;;;;;;;12.73;8.13;;;;;;;;;;5014670;28;20049;-74
2023/07/29 00:43:14;;;;;;;11.90;8.50;;;;;;;;;;5025982;28;20045;-74
2023/07/29 00:45:42;;;;;;;14.30;8.50;;;;;;;;;;5003684;28;20037;-74
2023/07/29 00:48:08;;;;;;;18.00;8.65;;;;;;;;;;5017159;28;20110;-71
2023/07/29 00:50:35;;;;;;;11.18;8.00;;;;;;;;;;5039634;28;20061;-72
2023/07/29 00:53:01;;;;;;;12.88;8.50;;;;;;;;;;5039414;28;20079;-72
2023/07/29 00:55:28;;;;;;;13.68;8.10;;;;;;;;;;5021529;28;20056;-72
2023/07/29 00:57:54;;;;;;;13.85;8.20;;;;;;;;;;5037448;28;20044;-73
2023/07/29 01:00:21;;;;;;;12.38;7.90;;;;;;;;;;5024629;28;20077;-72
2023/07/29 01:02:47;;;;;;;12.32;8.43;;;;;;;;;;5016826;28;20037;-72
2023/07/29 01:05:15;;;;;;;14.93;8.80;;;;;;;;;;5014796;28;20049;-72
2023/07/29 01:08:03;;;;;;;14.57;8.45;;;;;;;;;;5030674;28;20522;-73
2023/07/29 01:10:38;;;;;;;14.25;7.70;;;;;;;;;;5041017;28;20394;-72
2023/07/29 01:13:04;;;;;;;13.48;8.32;;;;;;;;;;5031582;28;20037;-72
2023/07/29 01:15:41;;;;;;;13.18;9.00;;;;;;;;;;5041974;28;20045;-72
2023/07/29 01:18:34;;;;;;;12.32;7.53;;;;;;;;;;5033885;28;20055;-72
2023/07/29 01:21:00;;;;;;;10.75;8.10;;;;;;;;;;5038337;28;20080;-74
2023/07/29 01:23:30;;;;;;;11.18;7.82;;;;;;;;;;5038304;28;20410;-74
2023/07/29 01:25:56;;;;;;;12.02;8.40;;;;;;;;;;5038472;28;20084;-74
2023/07/29 01:28:22;;;;;;;12.98;8.10;;;;;;;;;;5042477;28;20480;-72
2023/07/29 01:30:49;;;;;;;12.85;8.40;;;;;;;;;;5041676;28;20509;-72
2023/07/29 01:33:21;;;;;;;13.80;8.32;;;;;;;;;;5032770;28;20048;-74
2023/07/29 01:35:48;;;;;;;15.73;8.77;;;;;;;;;;5030045;28;20107;-74
2023/07/29 01:38:24;;;;;;;11.40;8.07;;;;;;;;;;5023376;28;20053;-74
2023/07/29 01:40:51;;;;;;;12.35;8.18;;;;;;;;;;5040517;28;20049;-74
2023/07/29 01:43:18;;;;;;;13.50;7.82;;;;;;;;;;5035373;28;20219;-72
2023/07/29 01:45:44;;;;;;;11.00;7.65;;;;;;;;;;5029857;28;20045;-72
2023/07/29 01:48:10;;;;;;;12.18;7.55;;;;;;;;;;5022650;28;20091;-72
2023/07/29 01:50:36;;;;;;;12.07;7.18;;;;;;;;;;5033402;28;20057;-72
2023/07/29 01:53:03;;;;;;;10.27;7.43;;;;;;;;;;5038944;28;20111;-72
2023/07/29 01:55:29;;;;;;;11.27;7.10;;;;;;;;;;5037181;28;20049;-72
2023/07/29 01:57:56;;;;;;;11.27;7.13;;;;;;;;;;5031780;28;20510;-72
2023/07/29 02:00:22;;;;;;;10.80;7.60;;;;;;;;;;5032290;28;20496;-72
2023/07/29 02:02:48;;;;;;;10.63;6.88;;;;;;;;;;5022584;28;20106;-72
2023/07/29 02:05:14;;;;;;;10.05;6.55;;;;;;;;;;5043320;28;20052;-72
2023/07/29 02:07:40;;;;;;;11.18;6.75;;;;;;;;;;5034270;28;20049;-72
2023/07/29 02:10:07;;;;;;;8.98;6.30;;;;;;;;;;5036227;28;20040;-72
2023/07/29 02:12:33;;;;;;;11.90;6.35;;;;;;;;;;5050822;28;20076;-72
2023/07/29 02:14:59;;;;;;;10.55;6.43;;;;;;;;;;5028032;28;20048;-73
2023/07/29 02:17:26;;;;;;;10.73;6.22;;;;;;;;;;5051750;28;20497;-74
2023/07/29 02:19:52;;;;;;;10.95;6.10;;;;;;;;;;5052373;28;20140;-74
2023/07/29 02:22:18;;;;;;;9.07;5.93;;;;;;;;;;5053608;28;20128;-74
2023/07/29 02:24:44;;;;;;;9.85;5.90;;;;;;;;;;5032481;28;20090;-72
2023/07/29 02:27:11;;;;;;;11.27;5.32;;;;;;;;;;5053630;28;20044;-74
2023/07/29 02:29:37;;;;;;;9.45;5.53;;;;;;;;;;5051454;28;20049;-74
2023/07/29 02:32:03;;;;;;;11.00;5.18;;;;;;;;;;5034014;28;20033;-72
2023/07/29 02:34:30;;;;;;;10.18;5.13;;;;;;;;;;5052601;28;20499;-72
2023/07/29 02:36:56;;;;;;;8.88;5.07;;;;;;;;;;5053941;28;20032;-74
2023/07/29 02:39:23;;;;;;;7.68;4.90;;;;;;;;;;5053188;28;20120;-74
2023/07/29 02:41:49;;;;;;;8.75;4.85;;;;;;;;;;5025618;28;20044;-71
2023/07/29 02:44:15;;;;;;;6.40;4.40;;;;;;;;;;5039293;28;20041;-74
2023/07/29 02:46:41;;;;;;;8.00;4.25;;;;;;;;;;5039008;28;20037;-72
2023/07/29 02:49:07;;;;;;;8.30;4.63;;;;;;;;;;5018270;28;20064;-73
2023/07/29 02:51:34;;;;;;;9.23;4.85;;;;;;;;;;5032135;28;20052;-72
2023/07/29 02:54:00;;;;;;;9.27;4.72;;;;;;;;;;5033677;28;20517;-72
2023/07/29 02:56:26;;;;;;;7.63;4.72;;;;;;;;;;5045187;28;20047;-74
2023/07/29 02:58:52;;;;;;;6.95;4.30;;;;;;;;;;5042168;28;20037;-74
2023/07/29 03:01:18;;;;;;;6.25;4.13;;;;;;;;;;5049068;28;20037;-74
2023/07/29 03:03:44;;;;;;;10.38;4.00;;;;;;;;;;5041461;28;20049;-74
2023/07/29 03:06:12;;;;;;;8.07;4.30;;;;;;;;;;5024796;28;20040;-74
2023/07/29 03:08:38;;;;;;;7.80;4.18;;;;;;;;;;5013931;28;20438;-74
2023/07/29 03:11:08;;;;;;;8.48;4.05;;;;;;;;;;5033550;28;20075;-74
2023/07/29 03:13:34;;;;;;;7.43;4.22;;;;;;;;;;5027694;28;20045;-74
2023/07/29 03:16:07;;;;;;;7.78;4.10;;;;;;;;;;5046726;28;20042;-74
2023/07/29 03:18:33;;;;;;;6.80;3.85;;;;;;;;;;5039944;28;20503;-74
2023/07/29 03:21:00;;;;;;;8.10;4.20;;;;;;;;;;5049906;28;20060;-71
2023/07/29 03:23:26;;;;;;;7.68;3.83;;;;;;;;;;5046934;28;20045;-72
2023/07/29 03:25:56;;;;;;;6.07;3.80;;;;;;;;;;5031846;28;20048;-72
2023/07/29 03:28:22;;;;;;;7.32;3.55;;;;;;;;;;5035400;28;20539;-72
2023/07/29 03:30:48;;;;;;;7.10;3.45;;;;;;;;;;5046120;28;20048;-72
2023/07/29 03:33:14;;;;;;;6.55;3.38;;;;;;;;;;5051923;28;20080;-72
2023/07/29 03:35:44;;;;;;;5.10;3.53;;;;;;;;;;5033272;28;20050;-72
2023/07/29 03:38:10;;;;;;;8.73;3.90;;;;;;;;;;5044796;28;20081;-72
2023/07/29 03:40:36;;;;;;;7.68;3.72;;;;;;;;;;5043141;28;20064;-72
2023/07/29 03:43:02;;;;;;;8.77;3.30;;;;;;;;;;5048595;28;20476;-72
2023/07/29 03:45:29;;;;;;;7.15;3.80;;;;;;;;;;5036119;28;20556;-72
2023/07/29 03:47:55;;;;;;;8.45;3.63;;;;;;;;;;5015523;28;20041;-74
2023/07/29 03:50:21;;;;;;;5.57;3.40;;;;;;;;;;5022139;28;20046;-74
2023/07/29 03:52:47;;;;;;;6.18;3.33;;;;;;;;;;5031874;28;20108;-71
2023/07/29 03:55:13;;;;;;;5.47;3.25;;;;;;;;;;5025454;28;20479;-72
2023/07/29 03:57:39;;;;;;;5.05;3.15;;;;;;;;;;5031921;28;20048;-72
2023/07/29 04:00:06;;;;;;;6.13;3.20;;;;;;;;;;5034170;28;20149;-72
2023/07/29 04:02:32;;;;;;;7.57;3.20;;;;;;;;;;5037450;28;20491;-74
2023/07/29 04:04:58;;;;;;;7.05;3.00;;;;;;;;;;5046003;28;20056;-75
2023/07/29 04:07:24;;;;;;;6.90;3.22;;;;;;;;;;5044850;28;20061;-72
2023/07/29 04:09:50;;;;;;;8.10;3.60;;;;;;;;;;5041993;28;20043;-72
2023/07/29 04:12:16;;;;;;;9.20;3.33;;;;;;;;;;5034403;28;20506;-72
2023/07/29 04:14:42;;;;;;;5.60;2.95;;;;;;;;;;5051784;28;20045;-72
2023/07/29 04:17:08;;;;;;;9.68;3.40;;;;;;;;;;5031933;28;20405;-72
2023/07/29 04:19:34;;;;;;;8.82;2.95;;;;;;;;;;5022214;28;20052;-72
2023/07/29 04:22:00;;;;;;;5.15;3.10;;;;;;;;;;5036122;28;20077;-72
2023/07/29 04:24:26;;;;;;;5.68;3.03;;;;;;;;;;5044800;28;20072;-74
2023/07/29 04:26:52;;;;;;;5.03;2.60;;;;;;;;;;5043752;28;20037;-74
2023/07/29 04:29:18;;;;;;;7.05;2.83;;;;;;;;;;5034268;28;20041;-74
2023/07/29 04:31:45;;;;;;;6.93;2.80;;;;;;;;;;5035607;28;20037;-74
2023/07/29 04:34:11;;;;;;;4.13;2.67;;;;;;;;;;5041331;28;20045;-73
2023/07/29 04:36:37;;;;;;;5.13;2.65;;;;;;;;;;5040141;28;20040;-74
2023/07/29 04:39:03;;;;;;;7.10;2.50;;;;;;;;;;5049717;28;20045;-74
2023/07/29 04:41:29;;;;;;;6.10;2.70;;;;;;;;;;5039274;28;20086;-74
2023/07/29 04:43:55;;;;;;;6.57;2.40;;;;;;;;;;5040030;28;20045;-74
2023/07/29 04:46:21;;;;;;;6.30;2.60;;;;;;;;;;5031278;28;20042;-74
2023/07/29 04:48:47;;;;;;;6.50;2.67;;;;;;;;;;5042079;28;20507;-72
2023/07/29 04:51:13;;;;;;;4.82;2.55;;;;;;;;;;5014988;28;20036;-72
2023/07/29 04:53:39;;;;;;;7.32;3.42;;;;;;;;;;5016666;28;20044;-72
2023/07/29 04:56:05;;;;;;;5.78;2.40;;;;;;;;;;5016153;28;20045;-72
2023/07/29 04:58:34;;;;;;;6.78;2.60;;;;;;;;;;5014434;28;20049;-72
2023/07/29 05:01:00;;;;;;;6.60;2.47;;;;;;;;;;4998484;28;20045;-72
2023/07/29 05:03:26;;;;;;;7.28;2.63;;;;;;;;;;5015180;28;20046;-73
2023/07/29 05:05:54;;;;;;;4.43;2.30;;;;;;;;;;5023469;28;20138;-73
2023/07/29 05:08:20;;;;;;;5.97;2.40;;;;;;;;;;5000811;28;20045;-72
2023/07/29 05:10:50;;;;;;;5.80;2.42;;;;;;;;;;4999097;28;20045;-73
2023/07/29 05:13:16;;;;;;;5.82;2.58;;;;;;;;;;5024825;28;20088;-73
2023/07/29 05:15:42;;;;;;;6.88;3.85;;;;;;;;;;5016716;28;20120;-72
2023/07/29 05:18:08;;;;;;;6.57;2.30;;;;;;;;;;5014443;28;20037;-72
2023/07/29 05:20:34;;;;;;;7.43;2.83;;;;;;;;;;4998024;28;20060;-72
2023/07/29 05:23:00;;;;;;;7.30;2.42;;;;;;;;;;5021247;28;20513;-71
2023/07/29 05:25:27;;;;;;;4.82;2.22;;;;;;;;;;5018594;28;20046;-72
2023/07/29 05:27:53;;;;;;;7.40;2.70;;;;;;;;;;5015737;28;20488;-72
2023/07/29 05:30:19;;;;;;;6.65;2.63;;;;;;;;;;5023126;28;20107;-72
2023/07/29 05:32:45;;;;;;;10.18;3.03;;;;;;;;;;5006311;28;20507;-74
2023/07/29 05:35:11;;;;;;;6.88;3.10;;;;;;;;;;5022743;28;20381;-74
2023/07/29 05:37:40;;;;;;;9.13;2.97;;;;;;;;;;5015275;28;20038;-74
2023/07/29 05:40:07;;;;;;;6.57;2.92;;;;;;;;;;5016949;28;20041;-74
2023/07/29 05:42:33;;;;;;;6.25;2.70;;;;;;;;;;5014984;28;20045;-75
2023/07/29 05:44:59;;;;;;;8.18;3.50;;;;;;;;;;5018722;28;20076;-73
2023/07/29 05:47:26;;;;;;;5.95;3.13;;;;;;;;;;5017981;28;20580;-73
2023/07/29 05:49:52;;;;;;;7.95;3.00;;;;;;;;;;5024805;28;20049;-72
2023/07/29 05:52:18;;;;;;;8.40;3.13;;;;;;;;;;5026066;28;20444;-72
2023/07/29 05:54:47;;;;;;;8.52;3.00;;;;;;;;;;5035561;28;20515;-72
2023/07/29 05:57:14;;;;;;;6.45;2.65;;;;;;;;;;5044513;28;20383;-72
2023/07/29 05:59:40;;;;;;;7.50;3.15;;;;;;;;;;5034927;28;20405;-71
2023/07/29 06:02:06;;;;;;;8.88;3.47;;;;;;;;;;5026449;28;20582;-72
2023/07/29 06:04:32;;;;;;;6.22;3.08;;;;;;;;;;5052953;28;20179;-72
2023/07/29 06:06:58;;;;;;;8.27;3.10;;;;;;;;;;5033411;28;20483;-72
2023/07/29 06:09:27;;;;;;;10.20;3.20;;;;;;;;;;5042234;28;20052;-72
2023/07/29 06:11:53;;;;;;;10.38;3.42;;;;;;;;;;5052903;28;20055;-71
2023/07/29 06:14:20;;;;;;;8.07;3.10;;;;;;;;;;5046017;28;20403;-72
2023/07/29 06:16:49;;;;;;;12.05;3.30;;;;;;;;;;5030852;28;20539;-71
2023/07/29 06:19:15;;;;;;;8.90;3.67;;;;;;;;;;5056070;28;20040;-72
2023/07/29 06:21:41;;;;;;;7.65;3.05;;;;;;;;;;5041465;28;20196;-72
2023/07/29 06:24:07;;;;;;;7.55;3.08;;;;;;;;;;5034034;28;20072;-73
2023/07/29 06:26:33;;;;;;;8.50;3.55;;;;;;;;;;5046002;28;20091;-72
2023/07/29 06:28:59;;;;;;;8.00;3.22;;;;;;;;;;5043764;28;20071;-72
2023/07/29 06:31:25;;;;;;;10.07;3.30;;;;;;;;;;5005405;28;20091;-72
2023/07/29 06:33:51;;;;;;;7.43;3.08;;;;;;;;;;5041121;28;20040;-73
2023/07/29 06:36:18;;;;;;;9.82;3.10;;;;;;;;;;5027992;28;20402;-73
2023/07/29 06:38:44;;;;;;;7.20;3.45;;;;;;;;;;5046982;28;20071;-73
2023/07/29 06:41:10;;;;;;;7.45;3.45;;;;;;;;;;5037803;28;20037;-73
2023/07/29 06:43:36;;;;;;;9.80;3.25;;;;;;;;;;5050248;28;20045;-73
2023/07/29 06:46:02;;;;;;;9.07;3.35;;;;;;;;;;5026964;28;20164;-73
2023/07/29 06:48:28;;;;;;;9.40;3.78;;;;;;;;;;5033154;28;20419;-73
2023/07/29 06:50:55;;;;;;;8.13;3.30;;;;;;;;;;5050986;28;20110;-73
2023/07/29 06:53:21;;;;;;;8.18;3.50;;;;;;;;;;5035814;28;20053;-73
2023/07/29 06:55:47;;;;;;;9.73;3.40;;;;;;;;;;5038404;28;20462;-73
2023/07/29 06:58:13;;;;;;;10.57;3.20;;;;;;;;;;5018526;28;20095;-72
2023/07/29 07:00:40;;;;;;;10.02;3.30;;;;;;;;;;5042079;28;20040;-72
2023/07/29 07:03:06;;;;;;;9.23;3.50;;;;;;;;;;5031210;28;20041;-72
2023/07/29 07:05:32;;;;;;;9.18;3.50;;;;;;;;;;5043327;28;20045;-71
2023/07/29 07:07:58;;;;;;;8.68;3.45;;;;;;;;;;5045817;28;20044;-72
2023/07/29 07:10:24;;;;;;;7.35;3.58;;;;;;;;;;5045878;28;20037;-72
2023/07/29 07:12:50;;;;;;;8.27;3.45;;;;;;;;;;5045011;28;20135;-72
2023/07/29 07:15:16;;;;;;;8.63;3.40;;;;;;;;;;5033961;28;20049;-73
2023/07/29 07:17:42;;;;;;;8.68;3.47;;;;;;;;;;5046158;28;20446;-71
2023/07/29 07:20:08;;;;;;;8.63;3.13;;;;;;;;;;5039051;28;20044;-72
2023/07/29 07:22:34;;;;;;;7.25;3.10;;;;;;;;;;5014979;28;20488;-72
2023/07/29 07:25:00;;;;;;;7.72;3.10;;;;;;;;;;5031545;28;20480;-72
2023/07/29 07:27:26;;;;;;;6.20;3.38;;;;;;;;;;5049643;28;20059;-74
2023/07/29 07:29:53;;;;;;;10.25;3.40;;;;;;;;;;5026904;28;20095;-71
2023/07/29 07:32:19;;;;;;;8.30;3.08;;;;;;;;;;5044209;28;20038;-73
2023/07/29 07:34:45;;;;;;;7.70;3.40;;;;;;;;;;5033365;28;20047;-73
2023/07/29 07:37:11;;;;;;;8.55;3.17;;;;;;;;;;5038968;28;20041;-72
2023/07/29 07:39:37;;;;;;;7.35;3.25;;;;;;;;;;5035471;28;20458;-73
2023/07/29 07:42:03;;;;;;;7.72;3.38;;;;;;;;;;5052086;28;20155;-72
2023/07/29 07:44:29;;;;;;;6.90;3.05;;;;;;;;;;5039846;28;20117;-73
2023/07/29 07:46:55;;;;;;;8.40;3.00;;;;;;;;;;5037979;28;20037;-72
2023/07/29 07:49:21;;;;;;;5.43;2.85;;;;;;;;;;5040449;28;20052;-72
2023/07/29 07:51:47;;;;;;;7.47;2.85;;;;;;;;;;5034312;28;20051;-72
2023/07/29 07:54:13;;;;;;;10.70;3.00;;;;;;;;;;5047069;28;20490;-72
2023/07/29 07:56:39;;;;;;;8.05;3.13;;;;;;;;;;5038195;28;20116;-72
2023/07/29 07:59:05;;;;;;;5.50;2.90;;;;;;;;;;5051083;28;20048;-74
2023/07/29 08:01:36;;;;;;;7.57;2.63;;;;;;;;;;5035091;28;20072;-73
2023/07/29 08:04:02;;;;;;;6.20;3.10;;;;;;;;;;5035749;28;20044;-74
2023/07/29 08:06:28;;;;;;;6.75;2.97;;;;;;;;;;5007384;28;20038;-73
2023/07/29 08:08:54;;;;;;;10.98;3.63;;;;;;;;;;5043128;28;20041;-73
2023/07/29 08:11:20;;;;;;;6.78;3.45;;;;;;;;;;5039273;28;20048;-71
2023/07/29 08:13:46;;;;;;;7.90;2.92;;;;;;;;;;5050786;28;20072;-73
2023/07/29 08:16:13;;;;;;;9.23;3.08;;;;;;;;;;5046355;28;20052;-71
2023/07/29 08:18:39;;;;;;;6.55;2.95;;;;;;;;;;5042826;28;20355;-71
2023/07/29 08:21:05;;;;;;;10.02;2.65;;;;;;;;;;5045264;28;20499;-72
2023/07/29 08:23:32;;;;;;;6.43;2.63;;;;;;;;;;5044583;28;20053;-73
2023/07/29 08:26:02;;;;;;;6.72;2.72;;;;;;;;;;5046706;28;20069;-74
2023/07/29 08:28:29;;;;;;;5.68;2.58;;;;;;;;;;5040864;28;20045;-74
2023/07/29 08:30:55;;;;;;;7.20;2.40;;;;;;;;;;5050228;28;20086;-71
2023/07/29 08:33:21;;;;;;;10.18;2.63;;;;;;;;;;5050637;28;20051;-73
2023/07/29 08:35:48;;;;;;;7.55;2.80;;;;;;;;;;5050519;28;20454;-73
2023/07/29 08:38:14;;;;;;;5.00;2.60;;;;;;;;;;5049616;28;20499;-71
2023/07/29 08:40:43;;;;;;;5.78;2.60;;;;;;;;;;5043518;28;20200;-73
2023/07/29 08:43:09;;;;;;;4.82;2.67;;;;;;;;;;5048654;28;20037;-73
2023/07/29 08:45:36;;;;;;;7.03;2.67;;;;;;;;;;5050157;28;20048;-72
2023/07/29 08:48:03;;;;;;;4.70;2.38;;;;;;;;;;5043329;28;20080;-74
2023/07/29 08:50:30;;;;;;;5.05;2.20;;;;;;;;;;5042339;28;20080;-75
2023/07/29 08:52:56;;;;;;;6.45;2.05;;;;;;;;;;5032385;28;20048;-75
2023/07/29 08:55:22;;;;;;;4.70;2.10;;;;;;;;;;5043259;28;20041;-75
2023/07/29 08:57:49;;;;;;;5.22;2.28;;;;;;;;;;5025916;28;20182;-75
2023/07/29 09:00:15;;;;;;;6.50;2.05;;;;;;;;;;5050318;28;20414;-75
2023/07/29 09:02:41;;;;;;;5.40;1.98;;;;;;;;;;5049875;28;20044;-75
2023/07/29 09:05:07;;;;;;;7.93;1.90;;;;;;;;;;5050115;28;20123;-75
2023/07/29 09:07:34;;;;;;;5.00;2.08;;;;;;;;;;5042804;28;20555;-75
2023/07/29 09:10:00;;;;;;;6.13;2.17;;;;;;;;;;5045594;28;20509;-75
2023/07/29 09:12:27;;;;;;;4.32;1.90;;;;;;;;;;5037092;28;20049;-75
2023/07/29 09:14:54;;;;;;;5.18;1.83;;;;;;;;;;5039631;28;20033;-74
2023/07/29 09:17:23;;;;;;;6.20;2.33;;;;;;;;;;5044841;28;20146;-74
2023/07/29 09:19:50;;;;;;;5.07;1.77;;;;;;;;;;5013861;28;20053;-74
2023/07/29 09:22:20;;;;;;;4.50;1.70;;;;;;;;;;5038134;28;20049;-75
2023/07/29 09:24:46;;;;;;;4.03;1.60;;;;;;;;;;5038709;28;20044;-75
2023/07/29 09:27:39;;;;;;;3.63;1.40;;;;;;;;;;5033817;28;20037;-73
2023/07/29 09:30:06;;;;;;;2.80;1.30;;;;;;;;;;5035463;28;20050;-73
2023/07/29 09:32:32;;;;;;;5.05;1.33;;;;;;;;;;5034347;28;20053;-71
2023/07/29 09:34:58;;;;;;;3.72;1.20;;;;;;;;;;5042563;28;20046;-74
2023/07/29 09:37:24;;;;;;;5.68;1.77;;;;;;;;;;5034967;28;20045;-73
2023/07/29 09:39:51;;;;;;;3.78;1.50;;;;;;;;;;5019521;28;20501;-72
2023/07/29 09:42:20;;;;;;;3.65;1.40;;;;;;;;;;5039340;28;20163;-75
2023/07/29 09:44:47;;;;;;;5.50;1.50;;;;;;;;;;5036149;28;20119;-71
2023/07/29 09:47:23;;;;;;;3.63;1.40;;;;;;;;;;5037864;28;20048;-73
2023/07/29 09:49:50;;;;;;;5.50;1.40;;;;;;;;;;5032449;28;20053;-74
2023/07/29 09:52:23;;;;;;;7.43;2.00;;;;;;;;;;5033858;28;20570;-73
2023/07/29 09:54:49;;;;;;;3.78;1.50;;;;;;;;;;5027163;28;20044;-72
2023/07/29 09:57:16;;;;;;;5.57;1.38;;;;;;;;;;5034069;28;20487;-73
2023/07/29 09:59:43;;;;;;;3.30;1.30;;;;;;;;;;5034158;28;20111;-73
2023/07/29 10:02:14;;;;;;;4.55;1.17;;;;;;;;;;5034673;28;20550;-71
2023/07/29 10:04:42;;;;;;;4.50;1.63;;;;;;;;;;5040376;28;20037;-73
2023/07/29 10:07:10;;;;;;;2.90;1.27;;;;;;;;;;5034055;28;20045;-74
2023/07/29 10:09:36;;;;;;;3.03;1.40;;;;;;;;;;5042192;28;20488;-74
2023/07/29 10:12:03;;;;;;;4.63;1.25;;;;;;;;;;5037064;28;20067;-74
2023/07/29 10:14:31;;;;;;;5.78;1.50;;;;;;;;;;5038103;28;20124;-71
2023/07/29 10:16:57;;;;;;;2.63;1.15;;;;;;;;;;5048139;28;20114;-72
2023/07/29 10:19:25;;;;;;;4.30;1.75;;;;;;;;;;5037071;28;20099;-74
2023/07/29 10:21:52;;;;;;;5.82;1.40;;;;;;;;;;5030326;28;20073;-74
2023/07/29 10:24:28;;;;;;;5.50;1.60;;;;;;;;;;5034527;28;20045;-75
2023/07/29 10:26:56;;;;;;;4.65;1.23;;;;;;;;;;5050198;28;20155;-73
2023/07/29 10:29:24;;;;;;;5.55;1.50;;;;;;;;;;5036955;28;20125;-72
2023/07/29 10:31:52;;;;;;;4.07;1.50;;;;;;;;;;5038699;28;20045;-73
2023/07/29 10:34:19;;;;;;;4.78;1.60;;;;;;;;;;5027303;28;20120;-73
2023/07/29 10:36:46;;;;;;;6.53;1.77;;;;;;;;;;5037739;28;20438;-72
2023/07/29 10:39:12;;;;;;;4.95;1.70;;;;;;;;;;5045469;28;20086;-71
2023/07/29 10:41:57;;;;;;;6.00;1.92;;;;;;;;;;5032936;28;20120;-73
2023/07/29 10:44:42;;;;;;;6.78;1.65;;;;;;;;;;5042508;28;20121;-73
2023/07/29 10:47:37;;;;;;;5.28;1.70;;;;;;;;;;5046871;28;20511;-71
2023/07/29 10:50:17;;;;;;;5.90;2.07;;;;;;;;;;5011558;28;20049;-72
2023/07/29 10:52:43;;;;;;;5.07;1.52;;;;;;;;;;5046693;28;20041;-71
2023/07/29 10:55:27;;;;;;;5.57;2.33;;;;;;;;;;5043047;28;20041;-74
2023/07/29 10:58:05;;;;;;;5.22;1.52;;;;;;;;;;5042768;28;20048;-73
2023/07/29 11:00:32;;;;;;;5.35;1.80;;;;;;;;;;5036033;28;20049;-72
2023/07/29 11:03:16;;;;;;;4.28;1.80;;;;;;;;;;5042011;28;20526;-72
2023/07/29 11:05:50;;;;;;;3.75;1.65;;;;;;;;;;5042818;28;20072;-71
2023/07/29 11:08:20;;;;;;;4.90;1.73;;;;;;;;;;5041652;28;20048;-74
2023/07/29 11:10:58;;;;;;;6.75;2.25;;;;;;;;;;5032771;28;20087;-72
2023/07/29 11:13:26;;;;;;;5.20;2.35;;;;;;;;;;5040410;28;20083;-74
2023/07/29 11:15:53;;;;;;;6.75;2.13;;;;;;;;;;5019778;28;20072;-75
2023/07/29 11:18:21;;;;;;;5.53;2.03;;;;;;;;;;5038493;28;20041;-73
2023/07/29 11:20:48;;;;;;;7.45;2.30;;;;;;;;;;5026995;28;20538;-74
2023/07/29 11:23:14;;;;;;;4.47;2.17;;;;;;;;;;5052216;28;20457;-75
2023/07/29 11:25:41;;;;;;;6.28;2.08;;;;;;;;;;5023920;28;20033;-73
2023/07/29 11:28:07;;;;;;;4.97;2.05;;;;;;;;;;5051288;28;20041;-72
2023/07/29 11:30:33;;;;;;;7.47;2.20;;;;;;;;;;5019232;28;20061;-74
2023/07/29 11:33:00;;;;;;;6.57;2.10;;;;;;;;;;5050164;28;20048;-74
2023/07/29 11:35:26;;;;;;;5.88;2.22;;;;;;;;;;5051315;28;20409;-74
2023/07/29 11:37:52;;;;;;;4.82;2.13;;;;;;;;;;5021149;28;20068;-75
2023/07/29 11:40:19;;;;;;;6.75;2.35;;;;;;;;;;5048245;28;20041;-75
2023/07/29 11:42:46;;;;;;;6.43;2.22;;;;;;;;;;5029526;28;20398;-74
2023/07/29 11:45:13;;;;;;;6.88;2.20;;;;;;;;;;5018588;28;20041;-75
2023/07/29 11:47:39;;;;;;;6.40;2.17;;;;;;;;;;5046140;28;20048;-73
2023/07/29 11:50:06;;;;;;;4.90;1.95;;;;;;;;;;5041848;28;20051;-74
2023/07/29 11:52:33;;;;;;;4.65;1.80;;;;;;;;;;5045978;28;20107;-74
2023/07/29 11:55:01;;;;;;;3.05;1.75;;;;;;;;;;5049150;28;20080;-75
2023/07/29 11:57:27;;;;;;;5.50;2.10;;;;;;;;;;5049263;28;20047;-74
2023/07/29 11:59:54;;;;;;;6.45;2.05;;;;;;;;;;5039814;28;20557;-75
2023/07/29 12:02:20;;;;;;;5.80;2.00;;;;;;;;;;5043334;28;20045;-74
2023/07/29 12:04:47;;;;;;;7.82;2.83;;;;;;;;;;5047794;28;20041;-74
2023/07/29 12:07:14;;;;;;;4.63;2.05;;;;;;;;;;5036280;28;20123;-73
2023/07/29 12:09:41;;;;;;;8.10;2.10;;;;;;;;;;5038624;28;20045;-75
2023/07/29 12:12:07;;;;;;;6.13;2.20;;;;;;;;;;5047441;28;20048;-74
2023/07/29 12:14:34;;;;;;;5.75;1.90;;;;;;;;;;5050815;28;20114;-74
2023/07/29 12:17:04;;;;;;;7.72;2.40;;;;;;;;;;5048326;28;20072;-74
2023/07/29 12:19:34;;;;;;;5.45;1.90;;;;;;;;;;5024041;28;20039;-75
2023/07/29 12:22:01;;;;;;;4.80;1.83;;;;;;;;;;5050277;28;20045;-75
2023/07/29 12:24:27;;;;;;;6.57;2.05;;;;;;;;;;5038635;28;20128;-75
2023/07/29 12:26:53;;;;;;;5.07;2.13;;;;;;;;;;5039358;28;20499;-75
2023/07/29 12:29:20;;;;;;;3.83;1.50;;;;;;;;;;5043351;28;20041;-75
2023/07/29 12:31:46;;;;;;;5.60;1.67;;;;;;;;;;5051668;28;20047;-75
2023/07/29 12:34:20;;;;;;;5.60;1.85;;;;;;;;;;5033856;28;20091;-74
2023/07/29 12:36:49;;;;;;;5.72;1.70;;;;;;;;;;5041990;28;20143;-75
2023/07/29 12:39:19;;;;;;;7.32;1.70;;;;;;;;;;5046642;28;20597;-75
2023/07/29 12:41:45;;;;;;;5.10;1.67;;;;;;;;;;5032600;28;20076;-75
2023/07/29 12:44:11;;;;;;;3.03;1.20;;;;;;;;;;5030204;28;20037;-75
2023/07/29 12:46:37;;;;;;;2.78;1.20;;;;;;;;;;5014980;28;20044;-75
2023/07/29 12:49:04;;;;;;;3.70;1.00;;;;;;;;;;5015227;28;20033;-74
2023/07/29 12:51:30;;;;;;;3.67;1.10;;;;;;;;;;5014733;28;20044;-74
2023/07/29 12:53:56;;;;;;;3.13;1.02;;;;;;;;;;5007115;28;20399;-76
2023/07/29 12:56:22;;;;;;;3.00;1.20;;;;;;;;;;5009304;28;20037;-75
2023/07/29 12:58:48;;;;;;;2.50;1.08;;;;;;;;;;5040431;28;20098;-76
2023/07/29 13:01:18;;;;;;;9.82;1.40;;;;;;;;;;5025293;28;20076;-75
2023/07/29 13:03:48;;;;;;;4.03;1.20;;;;;;;;;;5014453;28;20053;-75
2023/07/29 13:06:15;;;;;;;5.35;1.90;;;;;;;;;;5026939;28;20451;-74
2023/07/29 13:08:41;;;;;;;3.35;1.50;;;;;;;;;;5017080;28;20069;-75
2023/07/29 13:11:07;;;;;;;5.53;1.35;;;;;;;;;;5015560;28;20495;-75
2023/07/29 13:13:34;;;;;;;13.00;1.73;;;;;;;;;;5013826;28;20049;-75
2023/07/29 13:16:01;;;;;;;4.18;1.00;;;;;;;;;;5014367;28;20045;-75
2023/07/29 13:18:27;;;;;;;3.40;1.20;;;;;;;;;;5014440;28;20511;-75
2023/07/29 13:20:53;;;;;;;4.35;1.30;;;;;;;;;;5014353;28;20041;-75
2023/07/29 13:23:19;;;;;;;2.60;1.00;;;;;;;;;;5022366;28;20045;-75
2023/07/29 13:25:45;;;;;;;2.83;1.00;;;;;;;;;;5014164;28;20029;-76
2023/07/29 13:28:13;;;;;;;4.05;1.00;;;;;;;;;;5013385;28;20037;-75
2023/07/29 13:30:39;;;;;;;3.20;1.00;;;;;;;;;;5011852;28;20478;-76
2023/07/29 13:33:06;;;;;;;3.15;1.00;;;;;;;;;;5015098;28;20479;-75
2023/07/29 13:35:32;;;;;;;5.97;1.10;;;;;;;;;;5014235;28;20430;-75
2023/07/29 13:37:58;;;;;;;2.53;0.90;;;;;;;;;;5020126;28;20048;-75
2023/07/29 13:40:24;;;;;;;4.05;1.05;;;;;;;;;;5021283;28;20458;-75
2023/07/29 13:42:50;;;;;;;2.63;0.93;;;;;;;;;;5016948;28;20040;-75
2023/07/29 13:45:16;;;;;;;2.42;1.10;;;;;;;;;;5022441;28;20064;-75
2023/07/29 13:47:42;;;;;;;2.88;1.10;;;;;;;;;;5017730;28;20554;-75
2023/07/29 13:50:08;;;;;;;3.60;1.05;;;;;;;;;;5026145;28;20049;-75
2023/07/29 13:52:36;;;;;;;3.25;1.00;;;;;;;;;;5026791;28;20040;-76
2023/07/29 13:55:03;;;;;;;3.55;1.10;;;;;;;;;;5039681;28;20048;-75
2023/07/29 13:57:29;;;;;;;3.05;1.10;;;;;;;;;;5053456;28;20045;-75
2023/07/29 13:59:55;;;;;;;3.58;1.20;;;;;;;;;;5045489;28;20041;-75
2023/07/29 14:02:21;;;;;;;3.28;1.00;;;;;;;;;;5033768;28;20396;-75
2023/07/29 14:04:47;;;;;;;2.28;0.90;;;;;;;;;;5019990;28;20471;-75
2023/07/29 14:07:13;;;;;;;2.38;0.98;;;;;;;;;;5041251;28;20116;-76
2023/07/29 14:09:40;;;;;;;4.82;1.00;;;;;;;;;;5040491;28;20095;-75
2023/07/29 14:12:06;;;;;;;2.92;1.00;;;;;;;;;;5046917;28;20049;-74
2023/07/29 14:14:32;;;;;;;3.25;1.10;;;;;;;;;;5054108;28;20052;-73
2023/07/29 14:16:59;;;;;;;6.32;1.20;;;;;;;;;;5051990;28;20051;-74
2023/07/29 14:19:25;;;;;;;3.35;1.10;;;;;;;;;;5042650;28;20161;-72
2023/07/29 14:21:51;;;;;;;3.72;1.10;;;;;;;;;;5050638;28;20080;-72
2023/07/29 14:24:17;;;;;;;3.28;0.95;;;;;;;;;;5044143;28;20049;-73
2023/07/29 14:26:43;;;;;;;2.65;0.93;;;;;;;;;;5039615;28;20438;-75
2023/07/29 14:29:09;;;;;;;4.45;1.20;;;;;;;;;;5031895;28;20045;-75
2023/07/29 14:31:35;;;;;;;5.60;1.25;;;;;;;;;;5044773;28;20073;-76
2023/07/29 14:34:01;;;;;;;2.50;1.00;;;;;;;;;;5051743;28;20037;-76
2023/07/29 14:36:27;;;;;;;3.83;0.93;;;;;;;;;;5021040;28;20041;-75
2023/07/29 14:38:53;;;;;;;3.85;0.95;;;;;;;;;;5037357;28;20041;-72
2023/07/29 14:41:19;;;;;;;3.20;0.70;;;;;;;;;;5030716;28;20053;-74